createdAt,value
2019-01-29T00:00:42.975Z,963.80
2019-01-29T00:01:42.903Z,963.79
2019-01-29T00:02:44.077Z,963.78
2019-01-29T00:03:42.744Z,963.79
2019-01-29T00:04:42.640Z,963.85
2019-01-29T00:05:42.557Z,963.84
2019-01-29T00:06:42.468Z,963.88
2019-01-29T00:07:42.384Z,963.90
2019-01-29T00:08:42.307Z,963.88
2019-01-29T00:09:42.244Z,963.85
2019-01-29T00:10:42.130Z,963.91
2019-01-29T00:11:42.044Z,963.92
2019-01-29T00:12:41.961Z,963.95
2019-01-29T00:13:41.879Z,963.97
2019-01-29T00:14:41.800Z,963.93
2019-01-29T00:15:41.722Z,963.95
2019-01-29T00:16:41.626Z,963.99
2019-01-29T00:17:41.545Z,964.00
2019-01-29T00:18:41.456Z,964.01
2019-01-29T00:19:41.373Z,964.06
2019-01-29T00:20:41.302Z,964.01
2019-01-29T00:21:41.207Z,964.02
2019-01-29T00:22:41.130Z,964.07
2019-01-29T00:23:41.035Z,964.04
2019-01-29T00:24:40.974Z,964.07
2019-01-29T00:25:40.872Z,964.04
2019-01-29T00:26:40.784Z,964.06
2019-01-29T00:27:40.699Z,964.07
2019-01-29T00:28:40.616Z,964.09
2019-01-29T00:29:40.535Z,964.12
2019-01-29T00:30:40.453Z,964.06
2019-01-29T00:31:40.368Z,964.13
2019-01-29T00:32:40.350Z,964.13
2019-01-29T00:33:40.213Z,964.16
2019-01-29T00:34:40.109Z,964.16
2019-01-29T00:35:40.029Z,964.19
2019-01-29T00:36:39.964Z,964.17
2019-01-29T00:37:39.858Z,964.20
2019-01-29T00:38:39.779Z,964.22
2019-01-29T00:39:39.698Z,964.23
2019-01-29T00:40:39.610Z,964.26
2019-01-29T00:41:39.530Z,964.24
2019-01-29T00:42:39.444Z,964.29
2019-01-29T00:43:39.380Z,964.28
2019-01-29T00:44:39.280Z,964.26
2019-01-29T00:45:39.192Z,964.26
2019-01-29T00:46:39.116Z,964.32
2019-01-29T00:47:39.036Z,964.27
2019-01-29T00:48:38.938Z,964.31
2019-01-29T00:49:38.861Z,964.32
2019-01-29T00:50:38.777Z,964.32
2019-01-29T00:51:38.685Z,964.36
2019-01-29T00:52:42.120Z,964.39
2019-01-29T00:53:38.520Z,964.36
2019-01-29T00:54:38.432Z,964.40
2019-01-29T00:55:38.353Z,964.41
2019-01-29T00:56:38.266Z,964.42
2019-01-29T00:57:38.188Z,964.51
2019-01-29T00:58:38.095Z,964.49
2019-01-29T00:59:38.013Z,964.48
2019-01-29T01:00:37.930Z,964.44
2019-01-29T01:01:37.847Z,964.52
2019-01-29T01:02:37.765Z,964.52
2019-01-29T01:03:37.683Z,964.54
2019-01-29T01:04:37.596Z,964.55
2019-01-29T01:05:37.507Z,964.57
2019-01-29T01:06:37.426Z,964.56
2019-01-29T01:07:37.349Z,964.57
2019-01-29T01:08:38.422Z,964.59
2019-01-29T01:09:37.177Z,964.63
2019-01-29T01:10:37.090Z,964.64
2019-01-29T01:11:37.005Z,964.62
2019-01-29T01:12:36.926Z,964.56
2019-01-29T01:13:36.837Z,964.58
2019-01-29T01:14:36.754Z,964.62
2019-01-29T01:15:36.668Z,964.64
2019-01-29T01:16:36.586Z,964.62
2019-01-29T01:17:36.499Z,964.65
2019-01-29T01:18:36.419Z,964.68
2019-01-29T01:19:36.333Z,964.66
2019-01-29T01:20:36.248Z,964.70
2019-01-29T01:21:36.174Z,964.71
2019-01-29T01:22:36.080Z,964.68
2019-01-29T01:23:36.003Z,964.74
2019-01-29T01:24:35.921Z,964.72
2019-01-29T01:25:35.829Z,964.73
2019-01-29T01:26:35.747Z,964.75
2019-01-29T01:27:35.659Z,964.75
2019-01-29T01:28:35.582Z,964.79
2019-01-29T01:29:35.493Z,964.80
2019-01-29T01:30:35.406Z,964.80
2019-01-29T01:31:35.320Z,964.83
2019-01-29T01:32:35.237Z,964.78
2019-01-29T01:33:35.154Z,964.82
2019-01-29T01:34:35.081Z,964.84
2019-01-29T01:35:34.983Z,964.88
2019-01-29T01:36:34.905Z,964.86
2019-01-29T01:37:34.819Z,964.90
2019-01-29T01:38:34.736Z,964.91
2019-01-29T01:39:34.652Z,964.88
2019-01-29T01:40:34.565Z,964.92
2019-01-29T01:41:34.483Z,964.89
2019-01-29T01:42:34.400Z,964.91
2019-01-29T01:43:34.311Z,964.95
2019-01-29T01:44:34.228Z,964.89
2019-01-29T01:45:34.145Z,964.93
2019-01-29T01:46:34.062Z,964.93
2019-01-29T01:47:33.976Z,964.93
2019-01-29T01:48:33.890Z,964.92
2019-01-29T01:49:33.816Z,964.92
2019-01-29T01:50:33.722Z,964.94
2019-01-29T01:51:33.645Z,964.91
2019-01-29T01:52:33.604Z,964.90
2019-01-29T01:53:33.469Z,964.93
2019-01-29T01:54:33.386Z,964.96
2019-01-29T01:55:33.326Z,964.95
2019-01-29T01:56:33.218Z,964.95
2019-01-29T01:57:33.136Z,965.02
2019-01-29T01:58:33.047Z,965.01
2019-01-29T01:59:32.968Z,965.01
2019-01-29T02:00:32.882Z,965.00
2019-01-29T02:01:32.803Z,965.02
2019-01-29T02:02:32.714Z,965.00
2019-01-29T02:03:32.627Z,964.98
2019-01-29T02:04:32.586Z,965.01
2019-01-29T02:05:32.462Z,965.01
2019-01-29T02:06:32.375Z,965.01
2019-01-29T02:07:32.290Z,965.01
2019-01-29T02:08:32.206Z,965.03
2019-01-29T02:09:32.120Z,964.98
2019-01-29T02:10:32.040Z,965.04
2019-01-29T02:11:31.959Z,965.07
2019-01-29T02:12:31.871Z,965.04
2019-01-29T02:13:31.788Z,965.09
2019-01-29T02:14:31.702Z,965.09
2019-01-29T02:15:31.622Z,965.11
2019-01-29T02:16:31.531Z,965.13
2019-01-29T02:17:31.449Z,965.11
2019-01-29T02:18:31.364Z,965.11
2019-01-29T02:19:31.282Z,965.20
2019-01-29T02:20:31.194Z,965.19
2019-01-29T02:21:31.112Z,965.19
2019-01-29T02:22:31.031Z,965.24
2019-01-29T02:23:30.940Z,965.22
2019-01-29T02:24:30.863Z,965.22
2019-01-29T02:25:30.777Z,965.24
2019-01-29T02:26:30.693Z,965.30
2019-01-29T02:27:30.609Z,965.28
2019-01-29T02:28:30.526Z,965.31
2019-01-29T02:29:30.437Z,965.32
2019-01-29T02:30:30.373Z,965.29
2019-01-29T02:31:30.267Z,965.34
2019-01-29T02:32:30.183Z,965.36
2019-01-29T02:33:30.102Z,965.40
2019-01-29T02:34:30.021Z,965.40
2019-01-29T02:35:29.941Z,965.43
2019-01-29T02:36:29.847Z,965.42
2019-01-29T02:37:29.769Z,965.43
2019-01-29T02:38:29.681Z,965.43
2019-01-29T02:39:29.597Z,965.44
2019-01-29T02:40:29.517Z,965.41
2019-01-29T02:41:29.435Z,965.47
2019-01-29T02:42:29.344Z,965.44
2019-01-29T02:43:29.260Z,965.50
2019-01-29T02:44:29.172Z,965.51
2019-01-29T02:45:29.103Z,965.43
2019-01-29T02:46:29.004Z,965.46
2019-01-29T02:47:28.920Z,965.48
2019-01-29T02:48:28.837Z,965.52
2019-01-29T02:49:28.765Z,965.55
2019-01-29T02:50:28.669Z,965.56
2019-01-29T02:51:28.588Z,965.57
2019-01-29T02:52:28.511Z,965.59
2019-01-29T02:53:28.418Z,965.57
2019-01-29T02:54:28.337Z,965.61
2019-01-29T02:55:28.251Z,965.62
2019-01-29T02:56:28.177Z,965.65
2019-01-29T02:57:28.087Z,965.64
2019-01-29T02:58:27.992Z,965.62
2019-01-29T02:59:27.909Z,965.63
2019-01-29T03:00:27.824Z,965.62
2019-01-29T03:01:27.746Z,965.66
2019-01-29T03:02:27.662Z,965.65
2019-01-29T03:03:27.574Z,965.63
2019-01-29T03:04:27.485Z,965.67
2019-01-29T03:05:27.412Z,965.71
2019-01-29T03:06:27.317Z,965.71
2019-01-29T03:07:27.236Z,965.74
2019-01-29T03:08:27.162Z,965.71
2019-01-29T03:09:27.069Z,965.70
2019-01-29T03:10:26.988Z,965.70
2019-01-29T03:11:26.899Z,965.68
2019-01-29T03:12:26.818Z,965.68
2019-01-29T03:13:26.731Z,965.70
2019-01-29T03:14:26.649Z,965.73
2019-01-29T03:15:26.565Z,965.73
2019-01-29T03:16:26.478Z,965.74
2019-01-29T03:17:26.400Z,965.79
2019-01-29T03:18:26.316Z,965.78
2019-01-29T03:19:26.227Z,965.82
2019-01-29T03:20:26.142Z,965.86
2019-01-29T03:21:26.059Z,965.81
2019-01-29T03:22:25.976Z,965.82
2019-01-29T03:23:27.448Z,965.88
2019-01-29T03:24:25.816Z,965.86
2019-01-29T03:25:25.727Z,965.90
2019-01-29T03:26:25.640Z,965.92
2019-01-29T03:27:25.558Z,965.92
2019-01-29T03:28:25.479Z,965.97
2019-01-29T03:29:25.396Z,966.01
2019-01-29T03:30:25.303Z,965.96
2019-01-29T03:31:25.222Z,965.95
2019-01-29T03:32:25.133Z,965.99
2019-01-29T03:33:25.054Z,966.00
2019-01-29T03:34:24.967Z,966.02
2019-01-29T03:35:24.883Z,966.06
2019-01-29T03:36:24.796Z,966.08
2019-01-29T03:37:24.712Z,966.14
2019-01-29T03:38:24.624Z,966.14
2019-01-29T03:39:24.546Z,966.19
2019-01-29T03:40:24.463Z,966.21
2019-01-29T03:41:24.376Z,966.21
2019-01-29T03:42:24.290Z,966.24
2019-01-29T03:43:24.211Z,966.29
2019-01-29T03:44:24.119Z,966.29
2019-01-29T03:45:24.044Z,966.28
2019-01-29T03:46:23.957Z,966.31
2019-01-29T03:47:23.869Z,966.32
2019-01-29T03:48:23.788Z,966.33
2019-01-29T03:49:23.698Z,966.35
2019-01-29T03:50:23.631Z,966.34
2019-01-29T03:51:23.537Z,966.38
2019-01-29T03:52:23.450Z,966.35
2019-01-29T03:53:23.365Z,966.38
2019-01-29T03:54:23.284Z,966.38
2019-01-29T03:55:23.200Z,966.32
2019-01-29T03:56:23.110Z,966.37
2019-01-29T03:57:23.028Z,966.35
2019-01-29T03:58:22.950Z,966.34
2019-01-29T03:59:22.866Z,966.36
2019-01-29T04:00:22.785Z,966.43
2019-01-29T04:01:22.690Z,966.43
2019-01-29T04:02:22.611Z,966.46
2019-01-29T04:03:22.523Z,966.44
2019-01-29T04:04:22.443Z,966.43
2019-01-29T04:05:22.427Z,966.48
2019-01-29T04:06:22.270Z,966.45
2019-01-29T04:07:22.187Z,966.47
2019-01-29T04:08:22.107Z,966.50
2019-01-29T04:09:22.021Z,966.50
2019-01-29T04:10:21.939Z,966.52
2019-01-29T04:11:21.859Z,966.47
2019-01-29T04:12:21.773Z,966.50
2019-01-29T04:13:21.683Z,966.52
2019-01-29T04:14:21.596Z,966.49
2019-01-29T04:15:21.517Z,966.55
2019-01-29T04:16:21.431Z,966.51
2019-01-29T04:17:21.349Z,966.48
2019-01-29T04:18:21.267Z,966.53
2019-01-29T04:19:21.187Z,966.51
2019-01-29T04:20:21.098Z,966.55
2019-01-29T04:21:21.007Z,966.58
2019-01-29T04:22:20.931Z,966.57
2019-01-29T04:23:20.839Z,966.56
2019-01-29T04:24:20.760Z,966.58
2019-01-29T04:25:20.671Z,966.56
2019-01-29T04:26:20.593Z,966.54
2019-01-29T04:27:20.508Z,966.55
2019-01-29T04:28:20.423Z,966.51
2019-01-29T04:29:20.341Z,966.53
2019-01-29T04:30:20.254Z,966.48
2019-01-29T04:31:20.169Z,966.49
2019-01-29T04:32:20.084Z,966.50
2019-01-29T04:33:20.002Z,966.54
2019-01-29T04:34:19.919Z,966.56
2019-01-29T04:35:19.838Z,966.55
2019-01-29T04:36:19.745Z,966.56
2019-01-29T04:37:19.689Z,966.59
2019-01-29T04:38:19.602Z,966.63
2019-01-29T04:39:19.513Z,966.61
2019-01-29T04:40:19.415Z,966.61
2019-01-29T04:41:19.329Z,966.63
2019-01-29T04:42:19.242Z,966.64
2019-01-29T04:43:19.168Z,966.67
2019-01-29T04:44:19.077Z,966.63
2019-01-29T04:45:18.990Z,966.66
2019-01-29T04:46:18.908Z,966.65
2019-01-29T04:47:18.827Z,966.64
2019-01-29T04:48:18.746Z,966.66
2019-01-29T04:49:18.655Z,966.64
2019-01-29T04:50:18.571Z,966.66
2019-01-29T04:51:18.492Z,966.65
2019-01-29T04:52:18.401Z,966.68
2019-01-29T04:53:18.328Z,966.67
2019-01-29T04:54:18.241Z,966.71
2019-01-29T04:55:18.155Z,966.71
2019-01-29T04:56:18.069Z,966.76
2019-01-29T04:57:17.988Z,966.73
2019-01-29T04:58:17.903Z,966.74
2019-01-29T04:59:17.821Z,966.77
2019-01-29T05:00:17.734Z,966.74
2019-01-29T05:01:18.472Z,966.78
2019-01-29T05:02:17.562Z,966.79
2019-01-29T05:03:17.476Z,966.80
2019-01-29T05:04:17.399Z,966.81
2019-01-29T05:05:17.312Z,966.82
2019-01-29T05:06:17.225Z,966.84
2019-01-29T05:07:17.143Z,966.85
2019-01-29T05:08:17.072Z,966.90
2019-01-29T05:09:16.973Z,966.85
2019-01-29T05:10:16.888Z,966.87
2019-01-29T05:11:16.804Z,966.86
2019-01-29T05:12:16.716Z,966.86
2019-01-29T05:13:16.638Z,966.88
2019-01-29T05:14:16.555Z,966.86
2019-01-29T05:15:16.476Z,966.87
2019-01-29T05:16:16.389Z,966.91
2019-01-29T05:17:16.308Z,966.90
2019-01-29T05:18:16.219Z,966.91
2019-01-29T05:19:16.141Z,966.94
2019-01-29T05:20:16.066Z,966.92
2019-01-29T05:21:15.968Z,966.98
2019-01-29T05:22:15.883Z,966.96
2019-01-29T05:23:15.799Z,966.96
2019-01-29T05:24:15.712Z,966.97
2019-01-29T05:25:15.629Z,967.01
2019-01-29T05:26:15.559Z,967.02
2019-01-29T05:27:15.461Z,967.03
2019-01-29T05:28:15.373Z,967.02
2019-01-29T05:29:15.302Z,967.06
2019-01-29T05:30:15.210Z,967.01
2019-01-29T05:31:15.124Z,967.01
2019-01-29T05:32:15.040Z,967.01
2019-01-29T05:33:14.960Z,967.03
2019-01-29T05:34:14.873Z,967.05
2019-01-29T05:35:14.786Z,967.02
2019-01-29T05:36:14.703Z,967.03
2019-01-29T05:37:14.637Z,967.09
2019-01-29T05:38:14.539Z,967.06
2019-01-29T05:39:14.453Z,967.08
2019-01-29T05:40:14.369Z,967.11
2019-01-29T05:41:14.282Z,967.09
2019-01-29T05:42:14.198Z,967.10
2019-01-29T05:43:14.120Z,967.15
2019-01-29T05:44:14.043Z,967.14
2019-01-29T05:45:13.954Z,967.18
2019-01-29T05:46:13.867Z,967.22
2019-01-29T05:47:13.781Z,967.24
2019-01-29T05:48:13.698Z,967.26
2019-01-29T05:49:13.609Z,967.27
2019-01-29T05:50:13.528Z,967.30
2019-01-29T05:51:13.447Z,967.32
2019-01-29T05:52:13.356Z,967.36
2019-01-29T05:53:13.282Z,967.39
2019-01-29T05:54:16.488Z,967.39
2019-01-29T05:55:13.112Z,967.37
2019-01-29T05:56:13.023Z,967.37
2019-01-29T05:57:12.935Z,967.40
2019-01-29T05:58:12.860Z,967.42
2019-01-29T05:59:12.779Z,967.41
2019-01-29T06:00:12.683Z,967.41
2019-01-29T06:01:12.605Z,967.44
2019-01-29T06:02:12.521Z,967.46
2019-01-29T06:03:12.448Z,967.53
2019-01-29T06:04:12.363Z,967.49
2019-01-29T06:05:12.267Z,967.48
2019-01-29T06:06:12.181Z,967.48
2019-01-29T06:07:12.098Z,967.48
2019-01-29T06:08:12.012Z,967.48
2019-01-29T06:09:11.934Z,967.50
2019-01-29T06:10:11.862Z,967.54
2019-01-29T06:11:11.764Z,967.53
2019-01-29T06:12:11.675Z,967.50
2019-01-29T06:13:12.159Z,967.55
2019-01-29T06:14:11.506Z,967.53
2019-01-29T06:15:11.428Z,967.57
2019-01-29T06:16:11.344Z,967.59
2019-01-29T06:17:11.256Z,967.60
2019-01-29T06:18:11.177Z,967.61
2019-01-29T06:19:11.092Z,967.59
2019-01-29T06:20:11.050Z,967.58
2019-01-29T06:21:10.930Z,967.60
2019-01-29T06:22:10.836Z,967.61
2019-01-29T06:23:10.762Z,967.59
2019-01-29T06:24:10.670Z,967.64
2019-01-29T06:25:10.589Z,967.65
2019-01-29T06:26:10.503Z,967.65
2019-01-29T06:27:10.419Z,967.66
2019-01-29T06:28:10.335Z,967.63
2019-01-29T06:29:10.258Z,967.67
2019-01-29T06:30:10.182Z,967.69
2019-01-29T06:31:10.085Z,967.67
2019-01-29T06:32:09.998Z,967.71
2019-01-29T06:33:09.911Z,967.70
2019-01-29T06:34:09.831Z,967.75
2019-01-29T06:35:09.744Z,967.73
2019-01-29T06:36:09.664Z,967.76
2019-01-29T06:37:09.576Z,967.79
2019-01-29T06:38:09.500Z,967.76
2019-01-29T06:39:09.418Z,967.85
2019-01-29T06:40:09.325Z,967.83
2019-01-29T06:41:09.257Z,967.84
2019-01-29T06:42:09.156Z,967.88
2019-01-29T06:43:09.091Z,967.87
2019-01-29T06:44:09.008Z,967.91
2019-01-29T06:45:08.906Z,967.87
2019-01-29T06:46:08.823Z,967.92
2019-01-29T06:47:08.738Z,967.92
2019-01-29T06:48:08.655Z,967.97
2019-01-29T06:49:08.566Z,967.97
2019-01-29T06:50:08.486Z,967.99
2019-01-29T06:51:08.412Z,967.97
2019-01-29T06:52:08.330Z,967.98
2019-01-29T06:53:08.236Z,967.98
2019-01-29T06:54:08.149Z,967.99
2019-01-29T06:55:08.065Z,968.03
2019-01-29T06:56:07.980Z,968.01
2019-01-29T06:57:07.900Z,968.04
2019-01-29T06:58:07.831Z,968.05
2019-01-29T06:59:07.728Z,968.05
2019-01-29T07:00:07.649Z,968.06
2019-01-29T07:01:07.564Z,968.07
2019-01-29T07:02:08.323Z,968.07
2019-01-29T07:03:07.400Z,968.11
2019-01-29T07:04:07.309Z,968.06
2019-01-29T07:05:07.224Z,968.09
2019-01-29T07:06:07.141Z,968.12
2019-01-29T07:07:07.060Z,968.09
2019-01-29T07:08:06.974Z,968.13
2019-01-29T07:09:06.888Z,968.11
2019-01-29T07:10:06.813Z,968.10
2019-01-29T07:11:06.727Z,968.11
2019-01-29T07:12:06.636Z,968.09
2019-01-29T07:13:06.557Z,968.08
2019-01-29T07:14:06.471Z,968.06
2019-01-29T07:15:06.393Z,968.06
2019-01-29T07:16:06.310Z,968.09
2019-01-29T07:17:06.217Z,968.10
2019-01-29T07:18:06.179Z,968.08
2019-01-29T07:19:06.055Z,968.09
2019-01-29T07:20:05.966Z,968.12
2019-01-29T07:21:05.900Z,968.13
2019-01-29T07:22:05.800Z,968.09
2019-01-29T07:23:05.717Z,968.12
2019-01-29T07:24:05.625Z,968.13
2019-01-29T07:25:05.553Z,968.16
2019-01-29T07:26:05.487Z,968.16
2019-01-29T07:27:05.382Z,968.17
2019-01-29T07:28:05.313Z,968.21
2019-01-29T07:29:05.214Z,968.23
2019-01-29T07:30:05.126Z,968.21
2019-01-29T07:31:05.037Z,968.25
2019-01-29T07:32:04.981Z,968.26
2019-01-29T07:33:04.873Z,968.28
2019-01-29T07:34:04.791Z,968.31
2019-01-29T07:35:04.707Z,968.30
2019-01-29T07:36:04.626Z,968.29
2019-01-29T07:37:04.533Z,968.32
2019-01-29T07:38:04.451Z,968.33
2019-01-29T07:39:04.949Z,968.32
2019-01-29T07:40:04.300Z,968.32
2019-01-29T07:41:04.202Z,968.37
2019-01-29T07:42:04.117Z,968.31
2019-01-29T07:43:04.032Z,968.33
2019-01-29T07:44:03.965Z,968.32
2019-01-29T07:45:03.862Z,968.31
2019-01-29T07:46:03.776Z,968.31
2019-01-29T07:47:03.694Z,968.35
2019-01-29T07:48:03.610Z,968.28
2019-01-29T07:49:03.521Z,968.31
2019-01-29T07:50:03.467Z,968.30
2019-01-29T07:51:03.357Z,968.30
2019-01-29T07:52:03.276Z,968.30
2019-01-29T07:53:03.201Z,968.31
2019-01-29T07:54:03.104Z,968.30
2019-01-29T07:55:03.022Z,968.31
2019-01-29T07:56:02.938Z,968.32
2019-01-29T07:57:02.854Z,968.28
2019-01-29T07:58:02.772Z,968.31
2019-01-29T07:59:02.687Z,968.29
2019-01-29T08:00:02.605Z,968.29
2019-01-29T08:01:02.519Z,968.27
2019-01-29T08:02:02.435Z,968.31
2019-01-29T08:03:02.348Z,968.34
2019-01-29T08:04:02.266Z,968.32
2019-01-29T08:05:02.180Z,968.31
2019-01-29T08:06:02.096Z,968.37
2019-01-29T08:07:02.012Z,968.37
2019-01-29T08:08:01.962Z,968.37
2019-01-29T08:09:01.847Z,968.36
2019-01-29T08:10:01.767Z,968.38
2019-01-29T08:11:01.696Z,968.37
2019-01-29T08:12:01.590Z,968.40
2019-01-29T08:13:01.505Z,968.38
2019-01-29T08:14:01.423Z,968.37
2019-01-29T08:15:01.346Z,968.39
2019-01-29T08:16:01.255Z,968.40
2019-01-29T08:17:01.170Z,968.41
2019-01-29T08:18:01.095Z,968.39
2019-01-29T08:19:01.019Z,968.38
2019-01-29T08:20:00.930Z,968.41
2019-01-29T08:21:00.838Z,968.37
2019-01-29T08:22:00.762Z,968.37
2019-01-29T08:23:00.665Z,968.36
2019-01-29T08:24:00.583Z,968.35
2019-01-29T08:25:01.788Z,968.32
2019-01-29T08:26:00.418Z,968.38
2019-01-29T08:27:00.335Z,968.37
2019-01-29T08:28:00.254Z,968.40
2019-01-29T08:29:00.165Z,968.37
2019-01-29T08:30:00.087Z,968.38
2019-01-29T08:30:59.994Z,968.42
2019-01-29T08:31:59.928Z,968.43
2019-01-29T08:32:59.828Z,968.45
2019-01-29T08:33:59.742Z,968.42
2019-01-29T08:34:59.662Z,968.43
2019-01-29T08:35:59.586Z,968.45
2019-01-29T08:36:59.496Z,968.45
2019-01-29T08:37:59.421Z,968.45
2019-01-29T08:38:59.323Z,968.46
2019-01-29T08:39:59.241Z,968.44
2019-01-29T08:40:59.158Z,968.41
2019-01-29T08:41:59.072Z,968.39
2019-01-29T08:42:58.989Z,968.42
2019-01-29T08:43:58.900Z,968.46
2019-01-29T08:44:58.818Z,968.43
2019-01-29T08:45:59.561Z,968.45
2019-01-29T08:46:58.654Z,968.47
2019-01-29T08:47:58.567Z,968.49
2019-01-29T08:48:58.482Z,968.48
2019-01-29T08:49:58.401Z,968.49
2019-01-29T08:50:58.338Z,968.47
2019-01-29T08:51:58.232Z,968.52
2019-01-29T08:52:58.150Z,968.49
2019-01-29T08:53:58.069Z,968.49
2019-01-29T08:54:57.991Z,968.48
2019-01-29T08:55:57.901Z,968.44
2019-01-29T08:56:57.819Z,968.45
2019-01-29T08:57:57.729Z,968.51
2019-01-29T08:58:57.648Z,968.51
2019-01-29T08:59:57.578Z,968.51
2019-01-29T09:00:57.521Z,968.51
2019-01-29T09:01:57.398Z,968.56
2019-01-29T09:02:57.319Z,968.51
2019-01-29T09:03:57.227Z,968.51
2019-01-29T09:04:57.141Z,968.51
2019-01-29T09:05:57.108Z,968.51
2019-01-29T09:06:56.976Z,968.51
2019-01-29T09:07:56.900Z,968.49
2019-01-29T09:08:56.810Z,968.51
2019-01-29T09:09:56.741Z,968.56
2019-01-29T09:10:56.651Z,968.59
2019-01-29T09:11:56.558Z,968.53
2019-01-29T09:12:56.472Z,968.50
2019-01-29T09:13:56.416Z,968.51
2019-01-29T09:14:56.306Z,968.47
2019-01-29T09:15:56.219Z,968.46
2019-01-29T09:16:56.136Z,968.49
2019-01-29T09:17:56.059Z,968.49
2019-01-29T09:18:55.987Z,968.47
2019-01-29T09:19:55.886Z,968.50
2019-01-29T09:20:55.818Z,968.51
2019-01-29T09:21:55.717Z,968.49
2019-01-29T09:22:55.651Z,968.44
2019-01-29T09:23:55.551Z,968.47
2019-01-29T09:24:55.536Z,968.47
2019-01-29T09:25:55.386Z,968.46
2019-01-29T09:26:55.305Z,968.48
2019-01-29T09:27:55.224Z,968.47
2019-01-29T09:28:55.142Z,968.46
2019-01-29T09:29:55.052Z,968.49
2019-01-29T09:30:54.967Z,968.51
2019-01-29T09:31:54.942Z,968.51
2019-01-29T09:32:54.805Z,968.49
2019-01-29T09:33:54.731Z,968.52
2019-01-29T09:34:54.632Z,968.49
2019-01-29T09:35:54.566Z,968.49
2019-01-29T09:36:54.488Z,968.52
2019-01-29T09:37:54.382Z,968.55
2019-01-29T09:38:54.316Z,968.53
2019-01-29T09:39:54.222Z,968.56
2019-01-29T09:40:54.133Z,968.50
2019-01-29T09:41:54.054Z,968.54
2019-01-29T09:42:53.982Z,968.56
2019-01-29T09:43:53.890Z,968.52
2019-01-29T09:44:53.798Z,968.55
2019-01-29T09:45:53.750Z,968.55
2019-01-29T09:46:53.628Z,968.56
2019-01-29T09:47:53.544Z,968.55
2019-01-29T09:48:53.474Z,968.57
2019-01-29T09:49:53.390Z,968.57
2019-01-29T09:50:53.299Z,968.61
2019-01-29T09:51:53.217Z,968.60
2019-01-29T09:52:53.131Z,968.58
2019-01-29T09:53:53.051Z,968.60
2019-01-29T09:54:52.967Z,968.59
2019-01-29T09:55:52.880Z,968.54
2019-01-29T09:56:52.799Z,968.57
2019-01-29T09:57:52.730Z,968.55
2019-01-29T09:58:52.633Z,968.56
2019-01-29T09:59:52.548Z,968.56
2019-01-29T10:00:52.470Z,968.51
2019-01-29T10:01:52.381Z,968.51
2019-01-29T10:02:52.301Z,968.53
2019-01-29T10:03:52.243Z,968.49
2019-01-29T10:04:52.167Z,968.51
2019-01-29T10:05:52.095Z,968.48
2019-01-29T10:06:51.972Z,968.48
2019-01-29T10:07:51.886Z,968.47
2019-01-29T10:08:51.872Z,968.45
2019-01-29T10:09:51.719Z,968.48
2019-01-29T10:10:51.694Z,968.47
2019-01-29T10:11:51.551Z,968.45
2019-01-29T10:12:51.473Z,968.42
2019-01-29T10:13:51.394Z,968.43
2019-01-29T10:14:51.305Z,968.35
2019-01-29T10:15:51.221Z,968.38
2019-01-29T10:16:51.148Z,968.42
2019-01-29T10:17:51.055Z,968.33
2019-01-29T10:18:50.972Z,968.35
2019-01-29T10:19:50.896Z,968.34
2019-01-29T10:20:50.812Z,968.31
2019-01-29T10:21:50.731Z,968.31
2019-01-29T10:22:50.656Z,968.31
2019-01-29T10:23:50.603Z,968.33
2019-01-29T10:24:50.489Z,968.33
2019-01-29T10:25:50.399Z,968.34
2019-01-29T10:26:50.359Z,968.34
2019-01-29T10:27:50.227Z,968.29
2019-01-29T10:28:50.153Z,968.29
2019-01-29T10:29:50.088Z,968.31
2019-01-29T10:30:49.986Z,968.29
2019-01-29T10:31:49.904Z,968.29
2019-01-29T10:32:49.826Z,968.35
2019-01-29T10:33:49.736Z,968.31
2019-01-29T10:34:49.663Z,968.31
2019-01-29T10:35:49.636Z,968.25
2019-01-29T10:36:49.494Z,968.24
2019-01-29T10:37:49.408Z,968.26
2019-01-29T10:38:49.327Z,968.21
2019-01-29T10:39:49.266Z,968.20
2019-01-29T10:40:49.165Z,968.18
2019-01-29T10:41:49.086Z,968.18
2019-01-29T10:42:48.995Z,968.16
2019-01-29T10:43:48.950Z,968.15
2019-01-29T10:44:48.829Z,968.16
2019-01-29T10:45:48.766Z,968.15
2019-01-29T10:46:48.694Z,968.08
2019-01-29T10:47:48.602Z,968.11
2019-01-29T10:48:48.499Z,968.12
2019-01-29T10:49:48.421Z,968.11
2019-01-29T10:50:48.342Z,968.12
2019-01-29T10:51:48.256Z,968.07
2019-01-29T10:52:48.179Z,968.08
2019-01-29T10:53:48.093Z,968.06
2019-01-29T10:54:48.023Z,968.06
2019-01-29T10:55:47.942Z,968.05
2019-01-29T10:56:47.850Z,968.02
2019-01-29T10:57:47.774Z,967.99
2019-01-29T10:58:47.681Z,968.00
2019-01-29T10:59:47.600Z,967.96
2019-01-29T11:00:47.514Z,967.94
2019-01-29T11:01:47.439Z,967.92
2019-01-29T11:02:47.350Z,967.91
2019-01-29T11:03:47.316Z,967.90
2019-01-29T11:04:47.212Z,967.87
2019-01-29T11:05:47.107Z,967.84
2019-01-29T11:06:47.036Z,967.84
2019-01-29T11:07:46.992Z,967.85
2019-01-29T11:08:46.964Z,967.80
2019-01-29T11:09:48.399Z,967.80
2019-01-29T11:10:46.813Z,967.79
2019-01-29T11:11:46.615Z,967.75
2019-01-29T11:12:46.530Z,967.75
2019-01-29T11:13:46.513Z,967.72
2019-01-29T11:14:46.384Z,967.68
2019-01-29T11:15:46.306Z,967.71
2019-01-29T11:16:46.197Z,967.70
2019-01-29T11:17:46.114Z,967.63
2019-01-29T11:18:46.040Z,967.68
2019-01-29T11:19:45.953Z,967.66
2019-01-29T11:20:45.905Z,967.60
2019-01-29T11:21:45.794Z,967.60
2019-01-29T11:22:45.745Z,967.58
2019-01-29T11:23:45.650Z,967.57
2019-01-29T11:24:45.543Z,967.54
2019-01-29T11:25:45.470Z,967.50
2019-01-29T11:26:45.378Z,967.50
2019-01-29T11:27:45.322Z,967.46
2019-01-29T11:28:45.212Z,967.48
2019-01-29T11:29:45.135Z,967.47
2019-01-29T11:30:45.067Z,967.51
2019-01-29T11:31:44.967Z,967.45
2019-01-29T11:32:44.882Z,967.43
2019-01-29T11:33:44.804Z,967.42
2019-01-29T11:34:44.734Z,967.40
2019-01-29T11:35:44.669Z,967.42
2019-01-29T11:36:44.555Z,967.36
2019-01-29T11:37:44.480Z,967.38
2019-01-29T11:38:44.393Z,967.38
2019-01-29T11:39:44.310Z,967.34
2019-01-29T11:40:44.225Z,967.35
2019-01-29T11:41:44.190Z,967.34
2019-01-29T11:42:44.084Z,967.34
2019-01-29T11:43:43.978Z,967.33
2019-01-29T11:44:43.900Z,967.33
2019-01-29T11:45:43.819Z,967.32
2019-01-29T11:46:43.735Z,967.30
2019-01-29T11:47:43.650Z,967.31
2019-01-29T11:48:43.568Z,967.33
2019-01-29T11:49:43.493Z,967.31
2019-01-29T11:50:43.413Z,967.28
2019-01-29T11:51:43.359Z,967.28
2019-01-29T11:52:43.266Z,967.32
2019-01-29T11:53:43.166Z,967.29
2019-01-29T11:54:43.131Z,967.28
2019-01-29T11:55:42.997Z,967.30
2019-01-29T11:56:42.918Z,967.25
2019-01-29T11:57:42.845Z,967.26
2019-01-29T11:58:42.755Z,967.27
2019-01-29T11:59:42.678Z,967.29
2019-01-29T12:00:42.595Z,967.31
2019-01-29T12:01:42.513Z,967.31
2019-01-29T12:02:42.441Z,967.30
2019-01-29T12:03:42.362Z,967.32
2019-01-29T12:04:42.288Z,967.34
2019-01-29T12:05:42.225Z,967.35
2019-01-29T12:06:42.106Z,967.32
2019-01-29T12:07:42.022Z,967.34
2019-01-29T12:08:41.941Z,967.29
2019-01-29T12:09:41.886Z,967.28
2019-01-29T12:10:41.790Z,967.25
2019-01-29T12:11:41.699Z,967.27
2019-01-29T12:12:41.623Z,967.25
2019-01-29T12:13:41.549Z,967.23
2019-01-29T12:14:41.471Z,967.16
2019-01-29T12:15:41.379Z,967.17
2019-01-29T12:16:41.303Z,967.17
2019-01-29T12:17:41.225Z,967.14
2019-01-29T12:18:41.133Z,967.10
2019-01-29T12:19:41.059Z,967.09
2019-01-29T12:20:40.976Z,967.15
2019-01-29T12:21:40.889Z,967.06
2019-01-29T12:22:40.840Z,967.07
2019-01-29T12:23:40.733Z,967.05
2019-01-29T12:24:40.644Z,967.07
2019-01-29T12:25:40.563Z,967.04
2019-01-29T12:26:40.518Z,967.05
2019-01-29T12:27:40.400Z,967.07